createdAt,value
2018-02-15T00:01:48.838Z,55.75
2018-02-15T00:04:21.819Z,33.00
2018-02-15T00:06:57.013Z,37.25
2018-02-15T00:09:30.998Z,38.50
2018-02-15T00:12:04.534Z,33.00
2018-02-15T00:14:40.364Z,36.75
2018-02-15T00:17:15.878Z,38.00
2018-02-15T00:20:01.035Z,38.25
2018-02-15T00:22:33.000Z,43.00
2018-02-15T00:25:10.080Z,41.00
2018-02-15T00:27:42.562Z,42.50
2018-02-15T00:30:19.103Z,36.25
2018-02-15T00:32:54.071Z,35.00
2018-02-15T00:35:26.686Z,36.75
2018-02-15T00:37:59.815Z,35.00
2018-02-15T00:43:22.691Z,39.25
2018-02-15T00:45:58.722Z,37.00
2018-02-15T00:48:29.454Z,36.25
2018-02-15T00:51:02.275Z,41.25
2018-02-15T00:53:35.322Z,31.50
2018-02-15T00:56:12.583Z,42.00
2018-02-15T00:58:50.400Z,39.75
2018-02-15T01:01:22.998Z,39.00
2018-02-15T01:06:41.398Z,35.25
2018-02-15T01:09:19.590Z,36.25
2018-02-15T01:11:57.117Z,31.25
2018-02-15T01:14:34.295Z,36.50
2018-02-15T01:17:21.721Z,33.75
2018-02-15T01:19:58.828Z,33.25
2018-02-15T01:22:35.258Z,38.50
2018-02-15T01:25:07.692Z,36.25
2018-02-15T01:27:43.006Z,34.50
2018-02-15T01:30:20.159Z,36.00
2018-02-15T01:32:54.054Z,32.00
2018-02-15T01:35:30.894Z,36.50
2018-02-15T01:38:06.589Z,36.75
2018-02-15T01:40:42.718Z,32.00
2018-02-15T01:43:16.338Z,32.50
2018-02-15T01:45:48.728Z,30.00
2018-02-15T01:48:27.952Z,31.75
2018-02-15T01:51:08.417Z,38.00
2018-02-15T01:53:41.792Z,30.25
2018-02-15T01:56:21.118Z,32.50
2018-02-15T01:59:04.152Z,38.50
2018-02-15T02:01:42.096Z,34.00
2018-02-15T02:04:13.854Z,29.75
2018-02-15T02:06:48.500Z,32.50
2018-02-15T02:09:20.691Z,36.50
2018-02-15T02:11:51.558Z,31.75
2018-02-15T02:14:23.577Z,36.75
2018-02-15T02:16:56.911Z,32.50
2018-02-15T02:19:29.510Z,34.75
2018-02-15T02:22:02.817Z,31.00
2018-02-15T02:24:46.799Z,32.50
2018-02-15T02:27:21.509Z,32.25
2018-02-15T02:29:58.393Z,34.50
2018-02-15T02:35:14.757Z,32.75
2018-02-15T02:37:55.693Z,41.00
2018-02-15T02:40:34.781Z,36.25
2018-02-15T02:43:09.916Z,37.25
2018-02-15T02:45:50.599Z,33.25
2018-02-15T02:48:31.870Z,32.00
2018-02-15T02:51:05.277Z,36.00
2018-02-15T02:53:38.077Z,36.25
2018-02-15T02:56:11.531Z,36.00
2018-02-15T02:58:45.199Z,37.50
2018-02-15T03:01:19.482Z,33.75
2018-02-15T03:04:01.631Z,33.75
2018-02-15T03:06:55.305Z,30.75
2018-02-15T03:09:33.141Z,31.75
2018-02-15T03:12:44.100Z,38.50
2018-02-15T03:15:18.881Z,40.50
2018-02-15T03:17:51.000Z,37.00
2018-02-15T03:20:22.345Z,37.25
2018-02-15T03:22:56.098Z,34.75
2018-02-15T03:25:38.986Z,31.50
2018-02-15T03:28:14.999Z,39.25
2018-02-15T03:30:52.527Z,37.00
2018-02-15T03:33:29.818Z,42.25
2018-02-15T03:36:05.202Z,38.25
2018-02-15T03:38:40.660Z,35.25
2018-02-15T03:41:28.969Z,41.00
2018-02-15T03:44:05.792Z,37.75
2018-02-15T03:46:43.081Z,39.50
2018-02-15T03:49:14.154Z,40.75
2018-02-15T03:51:52.405Z,40.25
2018-02-15T03:54:32.052Z,43.50
2018-02-15T03:57:07.869Z,36.25
2018-02-15T03:59:38.896Z,41.75
2018-02-15T04:02:09.400Z,43.50
2018-02-15T04:04:42.082Z,38.00
2018-02-15T04:07:21.978Z,40.75
2018-02-15T04:09:55.160Z,44.00
2018-02-15T04:12:31.178Z,38.50
2018-02-15T04:15:05.093Z,43.75
2018-02-15T04:17:36.587Z,45.75
2018-02-15T04:20:14.468Z,45.50
2018-02-15T04:22:51.838Z,47.75
2018-02-15T04:25:23.989Z,39.75
2018-02-15T04:27:54.808Z,42.75
2018-02-15T04:30:27.540Z,39.50
2018-02-15T04:32:59.951Z,50.75
2018-02-15T04:35:40.541Z,45.25
2018-02-15T04:38:11.780Z,53.25
2018-02-15T04:40:43.152Z,39.25
2018-02-15T04:43:21.102Z,41.75
2018-02-15T04:45:53.148Z,47.50
2018-02-15T04:48:24.345Z,51.25
2018-02-15T04:50:59.852Z,57.50
2018-02-15T04:53:32.360Z,54.50
2018-02-15T04:56:04.362Z,49.00
2018-02-15T04:58:34.965Z,43.50
2018-02-15T05:01:06.969Z,54.50
2018-02-15T05:03:41.412Z,47.00
2018-02-15T05:06:13.190Z,57.50
2018-02-15T05:08:45.456Z,53.50
2018-02-15T05:11:16.887Z,41.25
2018-02-15T05:13:47.189Z,59.50
2018-02-15T05:16:19.202Z,58.00
2018-02-15T05:18:50.314Z,51.75
2018-02-15T05:21:22.871Z,59.50
2018-02-15T05:23:54.645Z,57.00
2018-02-15T05:26:25.961Z,55.00
2018-02-15T05:28:56.747Z,53.00
2018-02-15T05:31:32.505Z,63.50
2018-02-15T05:34:04.047Z,39.00
2018-02-15T05:36:34.416Z,56.00
2018-02-15T05:39:05.797Z,56.75
2018-02-15T05:41:39.742Z,48.25
2018-02-15T05:44:10.068Z,50.75
2018-02-15T05:46:42.349Z,47.25
2018-02-15T05:49:17.738Z,55.75
2018-02-15T05:51:47.962Z,51.75
2018-02-15T05:54:20.304Z,49.75
2018-02-15T05:56:51.707Z,51.25
2018-02-15T05:59:23.195Z,50.50
2018-02-15T06:01:56.323Z,43.25
2018-02-15T06:04:28.802Z,60.25
2018-02-15T06:07:00.633Z,47.50
2018-02-15T06:09:35.332Z,44.00
2018-02-15T06:12:08.476Z,46.75
2018-02-15T06:14:39.878Z,52.25
2018-02-15T06:17:11.764Z,46.50
2018-02-15T06:19:46.363Z,45.25
2018-02-15T06:22:19.710Z,54.75
2018-02-15T06:24:51.530Z,47.25
2018-02-15T06:27:23.068Z,47.00
2018-02-15T06:29:53.635Z,43.50
2018-02-15T06:32:24.891Z,47.00
2018-02-15T06:34:56.075Z,47.50
2018-02-15T06:37:34.924Z,50.75
2018-02-15T06:40:06.117Z,49.75
2018-02-15T06:42:38.401Z,41.00
2018-02-15T06:47:49.442Z,45.50
2018-02-15T06:50:20.712Z,43.25
2018-02-15T06:52:52.870Z,45.25
2018-02-15T06:55:25.049Z,47.00
2018-02-15T06:57:56.441Z,46.00
2018-02-15T07:00:30.721Z,45.75
2018-02-15T07:03:02.948Z,29.00
2018-02-15T07:05:34.648Z,46.25
2018-02-15T07:10:52.689Z,44.75
2018-02-15T07:13:26.245Z,47.75
2018-02-15T07:16:03.566Z,51.25
2018-02-15T07:18:36.705Z,51.00
2018-02-15T07:21:11.313Z,43.00
2018-02-15T07:23:45.166Z,40.25
2018-02-15T07:26:16.564Z,43.75
2018-02-15T07:28:51.391Z,35.00
2018-02-15T07:31:31.888Z,47.75
2018-02-15T07:34:06.940Z,33.00
2018-02-15T07:36:49.181Z,45.50
2018-02-15T07:39:21.760Z,40.75
2018-02-15T07:41:58.688Z,44.75
2018-02-15T07:44:37.184Z,38.50
2018-02-15T07:47:11.382Z,44.50
2018-02-15T07:49:48.189Z,43.25
2018-02-15T07:52:25.265Z,46.75
2018-02-15T07:54:58.928Z,42.00
2018-02-15T07:57:31.137Z,40.75
2018-02-15T08:00:10.333Z,39.00
2018-02-15T08:02:48.302Z,45.75
2018-02-15T08:05:22.627Z,48.25
2018-02-15T08:07:58.444Z,55.75
2018-02-15T08:10:29.703Z,40.00
2018-02-15T08:13:02.607Z,33.25
2018-02-15T08:15:40.673Z,37.75
2018-02-15T08:18:14.148Z,46.75
2018-02-15T08:20:49.824Z,43.75
2018-02-15T08:23:21.700Z,45.00
2018-02-15T08:25:57.848Z,36.00
2018-02-15T08:28:30.665Z,37.75
2018-02-15T08:31:10.033Z,40.50
2018-02-15T08:33:41.170Z,39.75
2018-02-15T08:36:18.751Z,36.50
2018-02-15T08:38:56.993Z,40.00
2018-02-15T08:41:33.152Z,42.25
2018-02-15T08:44:10.797Z,38.75
2018-02-15T08:46:44.615Z,50.00
2018-02-15T08:49:20.031Z,44.00
2018-02-15T08:51:58.414Z,39.50
2018-02-15T08:54:39.495Z,39.25
2018-02-15T08:57:11.388Z,36.00
2018-02-15T08:59:44.254Z,41.75
2018-02-15T09:02:20.195Z,38.50
2018-02-15T09:04:54.211Z,36.50
2018-02-15T09:07:27.490Z,41.25
2018-02-15T09:10:20.727Z,37.25
2018-02-15T09:12:52.925Z,43.75
2018-02-15T09:15:25.035Z,42.25
2018-02-15T09:17:59.190Z,36.75
2018-02-15T09:20:37.716Z,44.00
2018-02-15T09:25:49.198Z,38.75
2018-02-15T09:28:23.383Z,45.00
2018-02-15T09:30:58.789Z,44.00
2018-02-15T09:33:38.665Z,36.75
2018-02-15T09:36:15.434Z,37.00
2018-02-15T09:38:57.262Z,44.25
2018-02-15T09:41:30.537Z,40.75
2018-02-15T09:44:05.485Z,44.25
2018-02-15T09:46:40.570Z,40.00
2018-02-15T09:49:13.384Z,44.50
2018-02-15T09:51:51.414Z,42.25
2018-02-15T09:54:29.315Z,39.25
2018-02-15T09:57:02.536Z,38.75
2018-02-15T09:59:35.074Z,37.75
2018-02-15T10:02:11.349Z,46.50
2018-02-15T10:04:45.410Z,43.25
2018-02-15T10:07:19.138Z,39.25
2018-02-15T10:09:57.535Z,40.00
2018-02-15T10:12:42.662Z,41.50
2018-02-15T10:15:18.301Z,41.75
2018-02-15T10:18:04.848Z,41.75
2018-02-15T10:20:57.538Z,43.00
2018-02-15T10:23:35.306Z,43.00
2018-02-15T10:26:11.084Z,39.25
2018-02-15T10:29:14.590Z,45.25
2018-02-15T10:31:56.069Z,45.50
2018-02-15T10:34:34.717Z,46.25
2018-02-15T10:37:08.154Z,48.25
2018-02-15T10:39:45.878Z,49.75
2018-02-15T10:42:17.371Z,38.50
2018-02-15T10:47:27.730Z,43.75
2018-02-15T10:50:01.620Z,47.25
2018-02-15T10:52:37.772Z,42.75
2018-02-15T10:55:11.084Z,39.75
2018-02-15T10:57:48.244Z,39.50
2018-02-15T11:00:30.308Z,40.75
2018-02-15T11:03:11.101Z,48.50
2018-02-15T11:05:48.890Z,40.50
2018-02-15T11:08:21.326Z,40.25
2018-02-15T11:10:54.676Z,52.00
2018-02-15T11:13:30.356Z,42.75
2018-02-15T11:16:08.286Z,39.75
2018-02-15T11:19:02.097Z,42.00
2018-02-15T11:21:40.158Z,47.25
2018-02-15T11:24:11.817Z,38.25
2018-02-15T11:27:01.389Z,39.25
2018-02-15T11:29:37.492Z,44.00
2018-02-15T11:32:12.816Z,47.75
2018-02-15T11:34:56.113Z,44.75
2018-02-15T11:41:08.564Z,39.75
2018-02-15T11:43:54.494Z,41.25
2018-02-15T11:46:27.289Z,44.00
2018-02-15T11:49:06.584Z,40.00
2018-02-15T11:51:45.497Z,40.50
2018-02-15T11:54:18.006Z,41.50
2018-02-15T11:57:20.156Z,44.25
2018-02-15T11:59:56.062Z,43.75
2018-02-15T12:02:29.844Z,49.75
2018-02-15T12:05:01.502Z,39.00
2018-02-15T12:07:36.398Z,32.75
2018-02-15T12:10:11.522Z,41.75
2018-02-15T12:12:44.882Z,38.75
2018-02-15T12:15:29.883Z,39.25
2018-02-15T12:18:06.595Z,39.75
2018-02-15T12:20:37.798Z,43.75
2018-02-15T12:23:15.824Z,40.00
2018-02-15T12:25:47.298Z,37.00
2018-02-15T12:28:21.488Z,33.25
2018-02-15T12:30:58.278Z,40.50
2018-02-15T12:33:38.540Z,37.00
2018-02-15T12:36:12.132Z,46.00
2018-02-15T12:38:45.273Z,41.00
2018-02-15T12:41:19.338Z,44.25
2018-02-15T12:43:52.685Z,38.00
2018-02-15T12:46:31.582Z,31.75
2018-02-15T12:49:10.999Z,40.75
2018-02-15T12:51:46.215Z,32.00
2018-02-15T12:54:28.320Z,38.50
2018-02-15T12:57:05.766Z,38.50
2018-02-15T12:59:47.286Z,40.50
2018-02-15T13:02:20.243Z,37.25
2018-02-15T13:04:52.968Z,35.50
2018-02-15T13:07:32.282Z,38.50
2018-02-15T13:10:05.811Z,35.00
2018-02-15T13:12:48.494Z,33.25
2018-02-15T13:15:34.360Z,37.00
2018-02-15T13:18:12.906Z,33.25
2018-02-15T13:20:57.203Z,34.25
2018-02-15T13:23:40.276Z,34.50
2018-02-15T13:26:15.462Z,37.00
2018-02-15T13:28:53.997Z,37.00
2018-02-15T13:31:31.826Z,33.75
2018-02-15T13:36:45.095Z,37.25
2018-02-15T13:41:57.779Z,35.00
2018-02-15T13:44:29.949Z,44.50
2018-02-15T13:47:05.768Z,38.75
2018-02-15T13:49:42.299Z,39.00
2018-02-15T13:52:15.485Z,33.75
2018-02-15T13:54:52.519Z,30.25
2018-02-15T13:57:26.137Z,33.75
2018-02-15T14:02:41.747Z,29.00
2018-02-15T14:05:14.235Z,36.25
2018-02-15T14:07:46.961Z,32.25
2018-02-15T14:10:21.872Z,42.25
2018-02-15T14:13:04.201Z,32.25
2018-02-15T14:15:36.003Z,38.25
2018-02-15T14:18:08.288Z,36.00
2018-02-15T14:21:00.751Z,41.00
2018-02-15T14:23:36.472Z,35.75
2018-02-15T14:26:13.280Z,37.75
2018-02-15T14:28:47.281Z,36.75
2018-02-15T14:31:22.165Z,35.75
2018-02-15T14:33:58.879Z,38.50
2018-02-15T14:36:39.983Z,34.50
2018-02-15T14:39:13.759Z,38.75
2018-02-15T14:41:56.294Z,36.75
2018-02-15T14:44:33.482Z,30.75
2018-02-15T14:47:08.838Z,31.75
2018-02-15T14:49:44.958Z,39.25
2018-02-15T14:52:28.030Z,34.75
2018-02-15T14:55:03.665Z,31.25
2018-02-15T14:57:36.892Z,35.75
2018-02-15T15:00:20.248Z,42.25
2018-02-15T15:02:54.234Z,35.25
2018-02-15T15:05:26.004Z,37.50
2018-02-15T15:08:03.434Z,37.00
2018-02-15T15:10:37.916Z,34.25
2018-02-15T15:13:14.563Z,35.00
2018-02-15T15:15:54.230Z,31.75
2018-02-15T15:18:34.078Z,38.50
2018-02-15T15:21:08.396Z,40.50
2018-02-15T15:23:42.201Z,33.00
2018-02-15T15:26:15.530Z,35.00
2018-02-15T15:28:50.680Z,34.50
2018-02-15T15:31:28.124Z,37.00
2018-02-15T15:34:36.935Z,35.00
2018-02-15T15:37:22.359Z,33.25
2018-02-15T15:39:59.462Z,38.00
2018-02-15T15:42:44.400Z,37.50
2018-02-15T15:48:13.293Z,37.00
2018-02-15T15:51:07.736Z,32.50
2018-02-15T15:53:44.645Z,37.00
2018-02-15T15:56:37.626Z,34.25
2018-02-15T15:59:16.160Z,35.00
2018-02-15T16:02:02.659Z,38.75
2018-02-15T16:04:38.998Z,37.25
2018-02-15T16:07:40.148Z,37.25
2018-02-15T16:10:14.948Z,37.50
2018-02-15T16:12:57.621Z,43.50
2018-02-15T16:15:34.981Z,41.50
2018-02-15T16:18:13.858Z,41.25
2018-02-15T16:20:50.022Z,35.00
2018-02-15T16:26:23.556Z,37.00
2018-02-15T16:29:08.362Z,38.25
2018-02-15T16:31:45.072Z,36.75
2018-02-15T16:34:22.649Z,31.00
2018-02-15T16:37:09.785Z,38.75
2018-02-15T16:39:47.865Z,33.75
2018-02-15T16:42:31.851Z,31.50
2018-02-15T16:45:17.599Z,35.75
2018-02-15T16:47:51.959Z,30.50
2018-02-15T16:50:35.148Z,32.00
2018-02-15T16:53:11.827Z,33.00
2018-02-15T16:58:32.653Z,37.75
2018-02-15T17:01:11.719Z,37.00
2018-02-15T17:03:49.490Z,35.75
2018-02-15T17:06:27.355Z,41.00
2018-02-15T17:09:12.706Z,34.25
2018-02-15T17:11:57.386Z,33.75
2018-02-15T17:14:35.836Z,35.50
2018-02-15T17:17:21.878Z,39.50
2018-02-15T17:20:00.898Z,36.25
2018-02-15T17:22:45.666Z,37.75
2018-02-15T17:25:25.324Z,31.50
2018-02-15T17:28:06.245Z,37.25
2018-02-15T17:30:49.538Z,37.75
2018-02-15T17:33:31.833Z,32.00
2018-02-15T17:36:08.382Z,42.25
2018-02-15T17:38:54.701Z,35.75
2018-02-15T17:41:37.600Z,38.75
2018-02-15T17:44:17.591Z,33.50
2018-02-15T17:47:02.574Z,35.50
2018-02-15T17:49:40.207Z,36.50
2018-02-15T17:52:19.188Z,28.00
2018-02-15T17:54:56.524Z,30.50
2018-02-15T17:57:43.212Z,36.50
2018-02-15T18:00:26.530Z,34.00
2018-02-15T18:03:17.915Z,31.75
2018-02-15T18:06:06.723Z,31.00
2018-02-15T18:08:51.784Z,36.00
2018-02-15T18:11:31.151Z,35.50
2018-02-15T18:14:09.350Z,36.25
2018-02-15T18:16:49.599Z,37.50
2018-02-15T18:19:33.453Z,42.25
2018-02-15T18:22:07.154Z,38.00
2018-02-15T18:27:18.847Z,34.75
2018-02-15T18:29:57.065Z,34.50
2018-02-15T18:32:39.463Z,34.00
2018-02-15T18:35:21.468Z,38.00
2018-02-15T18:37:57.774Z,38.25
2018-02-15T18:40:32.038Z,33.25
2018-02-15T18:43:06.911Z,34.25
2018-02-15T18:45:45.207Z,39.50
2018-02-15T18:48:30.127Z,37.25
2018-02-15T18:51:11.202Z,32.75
2018-02-15T18:56:35.067Z,39.25
2018-02-15T18:59:13.903Z,36.25
2018-02-15T19:01:52.184Z,43.50
2018-02-15T19:04:29.289Z,40.75
2018-02-15T19:07:04.827Z,47.75
2018-02-15T19:09:40.433Z,45.75
2018-02-15T19:12:16.616Z,44.75
2018-02-15T19:14:57.106Z,43.75
2018-02-15T19:17:34.186Z,45.00
2018-02-15T19:20:09.895Z,41.50
2018-02-15T19:22:49.576Z,39.00
2018-02-15T19:25:24.813Z,34.25
2018-02-15T19:28:01.228Z,41.25
2018-02-15T19:30:40.396Z,44.50
2018-02-15T19:33:22.663Z,38.00
2018-02-15T19:35:58.707Z,40.50
2018-02-15T19:38:33.606Z,42.50
2018-02-15T19:41:10.481Z,40.25
2018-02-15T19:43:47.456Z,41.00
2018-02-15T19:46:27.690Z,43.00
2018-02-15T19:49:03.681Z,44.25
2018-02-15T19:51:38.027Z,43.50
2018-02-15T19:54:16.608Z,41.00
2018-02-15T19:56:51.701Z,43.50
2018-02-15T19:59:27.551Z,46.00
2018-02-15T20:02:04.759Z,42.75
2018-02-15T20:04:37.982Z,44.00
2018-02-15T20:07:19.180Z,44.75
2018-02-15T20:09:53.249Z,45.50
2018-02-15T20:12:25.710Z,36.75
2018-02-15T20:15:03.451Z,41.25
2018-02-15T20:17:38.998Z,42.25
2018-02-15T20:20:17.801Z,41.00
2018-02-15T20:22:53.319Z,38.50
2018-02-15T20:25:28.071Z,41.75
2018-02-15T20:28:04.977Z,36.50
2018-02-15T20:30:41.145Z,33.75
2018-02-15T20:33:16.663Z,42.25
2018-02-15T20:35:53.286Z,42.50
2018-02-15T20:38:42.261Z,39.25
2018-02-15T20:41:18.181Z,44.50
2018-02-15T20:43:52.151Z,42.75
2018-02-15T20:46:25.835Z,44.00
2018-02-15T20:48:59.185Z,42.00
2018-02-15T20:53:38.452Z,47.00
2018-02-15T20:56:13.983Z,42.50
2018-02-15T20:58:49.241Z,47.75
2018-02-15T21:01:23.998Z,49.25
2018-02-15T21:03:58.081Z,43.00
2018-02-15T21:06:35.542Z,46.75
2018-02-15T21:09:09.190Z,41.00
2018-02-15T21:11:43.556Z,42.00
2018-02-15T21:14:17.242Z,50.00
2018-02-15T21:16:51.164Z,47.00
2018-02-15T21:19:24.792Z,46.75
2018-02-15T21:21:56.325Z,48.25
2018-02-15T21:24:30.626Z,48.00
2018-02-15T21:27:04.230Z,51.25
2018-02-15T21:29:44.108Z,48.50
2018-02-15T21:32:17.346Z,50.25
2018-02-15T21:34:50.518Z,50.00
2018-02-15T21:37:23.361Z,50.50
2018-02-15T21:39:56.681Z,52.25
2018-02-15T21:42:30.460Z,51.00
2018-02-15T21:45:05.741Z,55.25
2018-02-15T21:47:38.712Z,59.25
2018-02-15T21:50:10.352Z,61.50
2018-02-15T21:52:46.224Z,63.00
2018-02-15T21:55:19.216Z,69.75
2018-02-15T21:57:50.789Z,70.00
2018-02-15T22:00:24.473Z,69.00
2018-02-15T22:03:00.036Z,72.25
2018-02-15T22:05:31.843Z,75.00
2018-02-15T22:08:05.304Z,71.00
2018-02-15T22:10:36.924Z,68.50
2018-02-15T22:13:07.538Z,66.75
2018-02-15T22:15:40.334Z,66.50
2018-02-15T22:18:11.464Z,67.00
2018-02-15T22:20:43.252Z,61.50
2018-02-15T22:23:14.899Z,62.50
2018-02-15T22:25:45.525Z,62.50
2018-02-15T22:28:16.498Z,64.50
2018-02-15T22:30:48.088Z,58.50
2018-02-15T22:33:18.706Z,61.50
2018-02-15T22:35:49.171Z,58.75
2018-02-15T22:38:20.175Z,61.50
2018-02-15T22:40:50.595Z,59.25
2018-02-15T22:43:21.050Z,57.25
2018-02-15T22:45:51.973Z,58.50
2018-02-15T22:48:22.692Z,61.50
2018-02-15T22:50:53.467Z,58.75
2018-02-15T22:53:24.343Z,57.50
2018-02-15T22:55:54.687Z,61.25
2018-02-15T22:58:25.176Z,54.25
2018-02-15T23:00:55.752Z,57.25
2018-02-15T23:03:26.616Z,58.75
2018-02-15T23:05:56.884Z,53.00
2018-02-15T23:08:27.637Z,51.25
2018-02-15T23:10:58.088Z,52.75
2018-02-15T23:13:29.094Z,52.25
2018-02-15T23:15:59.772Z,56.50
2018-02-15T23:18:31.602Z,51.75
2018-02-15T23:21:03.147Z,52.50
2018-02-15T23:23:33.462Z,52.25
2018-02-15T23:26:03.896Z,48.50
2018-02-15T23:28:34.896Z,48.75
2018-02-15T23:31:06.075Z,54.00
2018-02-15T23:33:38.031Z,50.25
2018-02-15T23:36:09.332Z,56.00
2018-02-15T23:38:40.650Z,53.25
2018-02-15T23:41:11.126Z,55.25
2018-02-15T23:43:42.621Z,52.75
2018-02-15T23:46:13.913Z,56.00
2018-02-15T23:48:48.380Z,54.75
2018-02-15T23:51:19.281Z,51.00
2018-02-15T23:53:50.191Z,51.00
2018-02-15T23:56:20.868Z,53.50
2018-02-15T23:58:51.336Z,46.75
